PWSweather.com
Personal Weather Stations
Station Observations
ISYDDANM23
Felsted, AabenraaDK 6200

FelstedAabenraaDK 6200

Lat: 54.977066, Lon: 9.507192

Elevation: 135

Station Type: Davis Vantage Pro 2 Plus 24H

http://www.valkaer.dk

High Low Average
Temperature 58.9°F14.9°C 45.9°F7.7°C 52.2°F11.2°C
Dew Point 51.8°F11.0°C 42.6°F5.9°C 47.3°F8.5°C
Winds 16.1 mph 25.9 kmh Calm Calm 9.0 mph WNW14.5 kmh WNW
Wind Gusts 25.3 mph40.7 kmh 1.2 mph1.9 kmh 12.0 mph19.3 kmh
Humidity 92% 66% 84%
Pressure 30.04 in1017.3 mb 29.80 in1009.1 mb -
Precipitation 0.00 in0.0 mm - -
Hour Temp Dew Point Humidity Winds Wind Gusts Pressure Precip Precip Rate Daily Precip Total
12:00 AM 54.4°F12.4°C 51.8°F11.0°C 91% 5.8 mph NW9.3 kmh NW 12.7 mph20.4 kmh 29.80 in1009.1 mb - 0.00 in0.0 mm 0.00 in0.0 mm
12:10 AM 54.3°F12.4°C 51.8°F11.0°C 91% 6.9 mph WNW11.1 kmh WNW 10.4 mph16.7 kmh 29.80 in1009.1 mb - 0.00 in0.0 mm 0.00 in0.0 mm
12:15 AM 54.1°F12.3°C 51.5°F10.8°C 91% 9.2 mph WNW14.8 kmh WNW 13.8 mph22.2 kmh 29.80 in1009.1 mb - 0.00 in0.0 mm 0.00 in0.0 mm
12:20 AM 53.9°F12.2°C 51.3°F10.7°C 91% 10.4 mph WNW16.7 kmh WNW 13.8 mph22.2 kmh 29.80 in1009.1 mb - 0.00 in0.0 mm 0.00 in0.0 mm
12:25 AM 53.8°F12.1°C 51.3°F10.7°C 91% 6.9 mph WNW11.1 kmh WNW 12.7 mph20.4 kmh 29.80 in1009.1 mb - 0.00 in0.0 mm 0.00 in0.0 mm
12:30 AM 53.8°F12.1°C 51.2°F10.7°C 91% 6.9 mph WNW11.1 kmh WNW 11.5 mph18.5 kmh 29.80 in1009.1 mb - 0.00 in0.0 mm 0.00 in0.0 mm
12:35 AM 53.8°F12.1°C 51.2°F10.7°C 91% 6.9 mph WNW11.1 kmh WNW 12.7 mph20.4 kmh 29.80 in1009.1 mb - 0.00 in0.0 mm 0.00 in0.0 mm
12:40 AM 53.8°F12.1°C 51.2°F10.7°C 91% 9.2 mph NW14.8 kmh NW 12.7 mph20.4 kmh 29.80 in1009.1 mb - 0.00 in0.0 mm 0.00 in0.0 mm
12:45 AM 53.8°F12.1°C 51.2°F10.7°C 91% 9.2 mph WNW14.8 kmh WNW 10.4 mph16.7 kmh 29.80 in1009.1 mb - 0.00 in0.0 mm 0.00 in0.0 mm
12:50 AM 53.7°F12.1°C 51.1°F10.6°C 91% 8.1 mph W13.0 kmh W 11.5 mph18.5 kmh 29.80 in1009.1 mb - 0.00 in0.0 mm 0.00 in0.0 mm
12:55 AM 53.5°F11.9°C 51.0°F10.6°C 91% 9.2 mph WNW14.8 kmh WNW 13.8 mph22.2 kmh 29.81 in1009.5 mb - 0.00 in0.0 mm 0.00 in0.0 mm
01:00 AM 53.4°F11.9°C 50.9°F10.5°C 91% 9.2 mph WNW14.8 kmh WNW 12.7 mph20.4 kmh 29.81 in1009.5 mb - 0.00 in0.0 mm 0.00 in0.0 mm
01:10 AM 53.2°F11.8°C 50.6°F10.3°C 91% 6.9 mph WNW11.1 kmh WNW 10.4 mph16.7 kmh 29.80 in1009.1 mb - 0.00 in0.0 mm 0.00 in0.0 mm
01:15 AM 53.1°F11.7°C 50.5°F10.3°C 91% 6.9 mph W11.1 kmh W 11.5 mph18.5 kmh 29.81 in1009.5 mb - 0.00 in0.0 mm 0.00 in0.0 mm
01:20 AM 52.9°F11.6°C 50.3°F10.2°C 91% 6.9 mph W11.1 kmh W 8.1 mph13.0 kmh 29.81 in1009.5 mb - 0.00 in0.0 mm 0.00 in0.0 mm
01:25 AM 52.8°F11.6°C 50.2°F10.1°C 91% 4.6 mph W7.4 kmh W 8.1 mph13.0 kmh 29.81 in1009.5 mb - 0.00 in0.0 mm 0.00 in0.0 mm
01:30 AM 52.6°F11.4°C 50.1°F10.1°C 91% 6.9 mph WNW11.1 kmh WNW 9.2 mph14.8 kmh 29.81 in1009.5 mb - 0.00 in0.0 mm 0.00 in0.0 mm
01:35 AM 52.5°F11.4°C 50.0°F10.0°C 91% 9.2 mph W14.8 kmh W 11.5 mph18.5 kmh 29.81 in1009.5 mb - 0.00 in0.0 mm 0.00 in0.0 mm
01:40 AM 52.4°F11.3°C 49.8°F9.9°C 91% 6.9 mph WNW11.1 kmh WNW 9.2 mph14.8 kmh 29.81 in1009.5 mb - 0.00 in0.0 mm 0.00 in0.0 mm
01:45 AM 52.4°F11.3°C 49.8°F9.9°C 91% 8.1 mph WNW13.0 kmh WNW 12.7 mph20.4 kmh 29.81 in1009.5 mb - 0.00 in0.0 mm 0.00 in0.0 mm
01:50 AM 52.3°F11.3°C 49.8°F9.9°C 91% 8.1 mph WNW13.0 kmh WNW 10.4 mph16.7 kmh 29.81 in1009.5 mb - 0.00 in0.0 mm 0.00 in0.0 mm
01:55 AM 52.2°F11.2°C 49.7°F9.8°C 91% 8.1 mph WNW13.0 kmh WNW 10.4 mph16.7 kmh 29.81 in1009.5 mb - 0.00 in0.0 mm 0.00 in0.0 mm
02:00 AM 52.2°F11.2°C 49.7°F9.8°C 91% 8.1 mph W13.0 kmh W 11.5 mph18.5 kmh 29.81 in1009.5 mb - 0.00 in0.0 mm 0.00 in0.0 mm
02:10 AM 52.0°F11.1°C 49.5°F9.7°C 91% 9.2 mph WNW14.8 kmh WNW 13.8 mph22.2 kmh 29.81 in1009.5 mb - 0.00 in0.0 mm 0.00 in0.0 mm
02:15 AM 51.9°F11.1°C 49.4°F9.7°C 91% 9.2 mph W14.8 kmh W 13.8 mph22.2 kmh 29.82 in1009.8 mb - 0.00 in0.0 mm 0.00 in0.0 mm
02:20 AM 51.7°F10.9°C 49.2°F9.6°C 91% 5.8 mph WNW9.3 kmh WNW 9.2 mph14.8 kmh 29.82 in1009.8 mb - 0.00 in0.0 mm 0.00 in0.0 mm
02:25 AM 51.7°F10.9°C 49.5°F9.7°C 92% 9.2 mph WNW14.8 kmh WNW 11.5 mph18.5 kmh 29.82 in1009.8 mb - 0.00 in0.0 mm 0.00 in0.0 mm
02:30 AM 51.6°F10.9°C 49.4°F9.7°C 92% 8.1 mph W13.0 kmh W 12.7 mph20.4 kmh 29.82 in1009.8 mb - 0.00 in0.0 mm 0.00 in0.0 mm
02:35 AM 51.5°F10.8°C 49.3°F9.6°C 92% 9.2 mph WNW14.8 kmh WNW 10.4 mph16.7 kmh 29.82 in1009.8 mb - 0.00 in0.0 mm 0.00 in0.0 mm
02:40 AM 51.5°F10.8°C 49.3°F9.6°C 92% 9.2 mph WNW14.8 kmh WNW 13.8 mph22.2 kmh 29.82 in1009.8 mb - 0.00 in0.0 mm 0.00 in0.0 mm
02:45 AM 51.4°F10.8°C 49.2°F9.6°C 92% 11.5 mph W18.5 kmh W 15.0 mph24.1 kmh 29.82 in1009.8 mb - 0.00 in0.0 mm 0.00 in0.0 mm
02:50 AM 51.4°F10.8°C 49.2°F9.6°C 92% 9.2 mph WNW14.8 kmh WNW 11.5 mph18.5 kmh 29.82 in1009.8 mb - 0.00 in0.0 mm 0.00 in0.0 mm
02:55 AM 51.4°F10.8°C 49.2°F9.6°C 92% 10.4 mph WNW16.7 kmh WNW 12.7 mph20.4 kmh 29.82 in1009.8 mb - 0.00 in0.0 mm 0.00 in0.0 mm
03:00 AM 51.4°F10.8°C 49.2°F9.6°C 92% 10.4 mph WNW16.7 kmh WNW 15.0 mph24.1 kmh 29.82 in1009.8 mb - 0.00 in0.0 mm 0.00 in0.0 mm
03:10 AM 51.4°F10.8°C 49.2°F9.6°C 92% 9.2 mph WNW14.8 kmh WNW 13.8 mph22.2 kmh 29.82 in1009.8 mb - 0.00 in0.0 mm 0.00 in0.0 mm
03:15 AM 51.3°F10.7°C 49.1°F9.5°C 92% 10.4 mph W16.7 kmh W 17.3 mph27.8 kmh 29.82 in1009.8 mb - 0.00 in0.0 mm 0.00 in0.0 mm
03:20 AM 51.2°F10.7°C 49.0°F9.4°C 92% 9.2 mph W14.8 kmh W 13.8 mph22.2 kmh 29.82 in1009.8 mb - 0.00 in0.0 mm 0.00 in0.0 mm
03:25 AM 51.2°F10.7°C 49.0°F9.4°C 92% 12.7 mph WNW20.4 kmh WNW 17.3 mph27.8 kmh 29.82 in1009.8 mb - 0.00 in0.0 mm 0.00 in0.0 mm
03:30 AM 51.2°F10.7°C 49.0°F9.4°C 92% 8.1 mph WNW13.0 kmh WNW 12.7 mph20.4 kmh 29.83 in1010.2 mb - 0.00 in0.0 mm 0.00 in0.0 mm
03:35 AM 51.1°F10.6°C 48.9°F9.4°C 92% 11.5 mph NW18.5 kmh NW 16.1 mph25.9 kmh 29.83 in1010.2 mb - 0.00 in0.0 mm 0.00 in0.0 mm
03:40 AM 51.1°F10.6°C 48.9°F9.4°C 92% 10.4 mph NW16.7 kmh NW 10.4 mph16.7 kmh 29.82 in1009.8 mb - 0.00 in0.0 mm 0.00 in0.0 mm
03:45 AM 51.1°F10.6°C 48.9°F9.4°C 92% 11.5 mph WNW18.5 kmh WNW 15.0 mph24.1 kmh 29.82 in1009.8 mb - 0.00 in0.0 mm 0.00 in0.0 mm
03:50 AM 51.1°F10.6°C 48.9°F9.4°C 92% 6.9 mph WNW11.1 kmh WNW 11.5 mph18.5 kmh 29.82 in1009.8 mb - 0.00 in0.0 mm 0.00 in0.0 mm
03:55 AM 51.1°F10.6°C 48.9°F9.4°C 92% 10.4 mph WNW16.7 kmh WNW 16.1 mph25.9 kmh 29.82 in1009.8 mb - 0.00 in0.0 mm 0.00 in0.0 mm
04:00 AM 51.1°F10.6°C 48.8°F9.3°C 92% 9.2 mph WNW14.8 kmh WNW 11.5 mph18.5 kmh 29.83 in1010.2 mb - 0.00 in0.0 mm 0.00 in0.0 mm
04:10 AM 51.0°F10.6°C 48.8°F9.3°C 92% 8.1 mph WNW13.0 kmh WNW 16.1 mph25.9 kmh 29.83 in1010.2 mb - 0.00 in0.0 mm 0.00 in0.0 mm
04:15 AM 51.0°F10.6°C 48.7°F9.3°C 92% 11.5 mph WNW18.5 kmh WNW 16.1 mph25.9 kmh 29.83 in1010.2 mb - 0.00 in0.0 mm 0.00 in0.0 mm
04:20 AM 51.0°F10.6°C 48.8°F9.3°C 92% 13.8 mph WNW22.2 kmh WNW 16.1 mph25.9 kmh 29.83 in1010.2 mb - 0.00 in0.0 mm 0.00 in0.0 mm
04:25 AM 50.9°F10.5°C 48.7°F9.3°C 92% 11.5 mph NW18.5 kmh NW 12.7 mph20.4 kmh 29.84 in1010.5 mb - 0.00 in0.0 mm 0.00 in0.0 mm
04:30 AM 50.9°F10.5°C 48.7°F9.3°C 92% 11.5 mph NW18.5 kmh NW 13.8 mph22.2 kmh 29.84 in1010.5 mb - 0.00 in0.0 mm 0.00 in0.0 mm
04:35 AM 50.9°F10.5°C 48.7°F9.3°C 92% 10.4 mph WNW16.7 kmh WNW 13.8 mph22.2 kmh 29.84 in1010.5 mb - 0.00 in0.0 mm 0.00 in0.0 mm
04:40 AM 50.9°F10.5°C 48.7°F9.3°C 92% 5.8 mph WNW9.3 kmh WNW 10.4 mph16.7 kmh 29.84 in1010.5 mb - 0.00 in0.0 mm 0.00 in0.0 mm
04:45 AM 50.9°F10.5°C 48.4°F9.1°C 91% 9.2 mph WNW14.8 kmh WNW 13.8 mph22.2 kmh 29.84 in1010.5 mb - 0.00 in0.0 mm 0.00 in0.0 mm
04:50 AM 50.9°F10.5°C 48.4°F9.1°C 91% 12.7 mph WNW20.4 kmh WNW 17.3 mph27.8 kmh 29.84 in1010.5 mb - 0.00 in0.0 mm 0.00 in0.0 mm
04:55 AM 50.9°F10.5°C 48.4°F9.1°C 91% 9.2 mph WNW14.8 kmh WNW 15.0 mph24.1 kmh 29.84 in1010.5 mb - 0.00 in0.0 mm 0.00 in0.0 mm
05:00 AM 50.9°F10.5°C 48.4°F9.1°C 91% 8.1 mph NW13.0 kmh NW 13.8 mph22.2 kmh 29.84 in1010.5 mb - 0.00 in0.0 mm 0.00 in0.0 mm
05:10 AM 50.8°F10.4°C 48.2°F9.0°C 91% 6.9 mph WNW11.1 kmh WNW 11.5 mph18.5 kmh 29.85 in1010.8 mb - 0.00 in0.0 mm 0.00 in0.0 mm
05:15 AM 50.7°F10.4°C 48.2°F9.0°C 91% 9.2 mph WNW14.8 kmh WNW 11.5 mph18.5 kmh 29.85 in1010.8 mb - 0.00 in0.0 mm 0.00 in0.0 mm
05:20 AM 50.8°F10.4°C 48.2°F9.0°C 91% 10.4 mph WNW16.7 kmh WNW 11.5 mph18.5 kmh 29.85 in1010.8 mb - 0.00 in0.0 mm 0.00 in0.0 mm
05:25 AM 50.8°F10.4°C 48.2°F9.0°C 91% 10.4 mph WNW16.7 kmh WNW 11.5 mph18.5 kmh 29.85 in1010.8 mb - 0.00 in0.0 mm 0.00 in0.0 mm
05:30 AM 50.7°F10.4°C 48.2°F9.0°C 91% 8.1 mph NW13.0 kmh NW 11.5 mph18.5 kmh 29.85 in1010.8 mb - 0.00 in0.0 mm 0.00 in0.0 mm
05:35 AM 50.8°F10.4°C 48.3°F9.1°C 91% 9.2 mph NW14.8 kmh NW 11.5 mph18.5 kmh 29.85 in1010.8 mb - 0.00 in0.0 mm 0.00 in0.0 mm
05:40 AM 50.8°F10.4°C 48.2°F9.0°C 91% 6.9 mph WNW11.1 kmh WNW 8.1 mph13.0 kmh 29.86 in1011.2 mb - 0.00 in0.0 mm 0.00 in0.0 mm
05:45 AM 50.8°F10.4°C 48.3°F9.1°C 91% 9.2 mph NW14.8 kmh NW 12.7 mph20.4 kmh 29.86 in1011.2 mb - 0.00 in0.0 mm 0.00 in0.0 mm
05:50 AM 50.8°F10.4°C 48.3°F9.1°C 91% 8.1 mph WNW13.0 kmh WNW 11.5 mph18.5 kmh 29.86 in1011.2 mb - 0.00 in0.0 mm 0.00 in0.0 mm
05:55 AM 50.7°F10.4°C 48.2°F9.0°C 91% 10.4 mph WNW16.7 kmh WNW 11.5 mph18.5 kmh 29.86 in1011.2 mb - 0.00 in0.0 mm 0.00 in0.0 mm
06:00 AM 50.7°F10.4°C 48.2°F9.0°C 91% 10.4 mph NW16.7 kmh NW 12.7 mph20.4 kmh 29.86 in1011.2 mb - 0.00 in0.0 mm 0.00 in0.0 mm
06:10 AM 50.7°F10.4°C 48.2°F9.0°C 91% 9.2 mph W14.8 kmh W 16.1 mph25.9 kmh 29.87 in1011.5 mb - 0.00 in0.0 mm 0.00 in0.0 mm
06:15 AM 50.7°F10.4°C 48.2°F9.0°C 91% 8.1 mph WNW13.0 kmh WNW 12.7 mph20.4 kmh 29.87 in1011.5 mb - 0.00 in0.0 mm 0.00 in0.0 mm
06:20 AM 50.7°F10.4°C 48.2°F9.0°C 91% 12.7 mph WNW20.4 kmh WNW 16.1 mph25.9 kmh 29.87 in1011.5 mb - 0.00 in0.0 mm 0.00 in0.0 mm
06:25 AM 50.6°F10.3°C 48.1°F8.9°C 91% 11.5 mph WNW18.5 kmh WNW 16.1 mph25.9 kmh 29.87 in1011.5 mb - 0.00 in0.0 mm 0.00 in0.0 mm
06:30 AM 50.6°F10.3°C 48.1°F8.9°C 91% 10.4 mph W16.7 kmh W 18.4 mph29.6 kmh 29.87 in1011.5 mb - 0.00 in0.0 mm 0.00 in0.0 mm
06:35 AM 50.6°F10.3°C 48.0°F8.9°C 91% 12.7 mph WNW20.4 kmh WNW 17.3 mph27.8 kmh 29.87 in1011.5 mb - 0.00 in0.0 mm 0.00 in0.0 mm
06:40 AM 50.6°F10.3°C 48.1°F8.9°C 91% 10.4 mph WNW16.7 kmh WNW 11.5 mph18.5 kmh 29.87 in1011.5 mb - 0.00 in0.0 mm 0.00 in0.0 mm
06:45 AM 50.7°F10.4°C 48.2°F9.0°C 91% 9.2 mph WNW14.8 kmh WNW 13.8 mph22.2 kmh 29.87 in1011.5 mb - 0.00 in0.0 mm 0.00 in0.0 mm
06:50 AM 50.7°F10.4°C 47.9°F8.8°C 90% 8.1 mph NW13.0 kmh NW 11.5 mph18.5 kmh 29.88 in1011.9 mb - 0.00 in0.0 mm 0.00 in0.0 mm
06:55 AM 50.7°F10.4°C 47.9°F8.8°C 90% 11.5 mph WNW18.5 kmh WNW 17.3 mph27.8 kmh 29.88 in1011.9 mb - 0.00 in0.0 mm 0.00 in0.0 mm
07:00 AM 50.7°F10.4°C 47.9°F8.8°C 90% 12.7 mph WNW20.4 kmh WNW 18.4 mph29.6 kmh 29.88 in1011.9 mb - 0.00 in0.0 mm 0.00 in0.0 mm
07:10 AM 50.8°F10.4°C 48.0°F8.9°C 90% 10.4 mph WNW16.7 kmh WNW 16.1 mph25.9 kmh 29.88 in1011.9 mb - 0.00 in0.0 mm 0.00 in0.0 mm
07:15 AM 50.9°F10.5°C 48.1°F8.9°C 90% 9.2 mph WNW14.8 kmh WNW 15.0 mph24.1 kmh 29.88 in1011.9 mb - 0.00 in0.0 mm 0.00 in0.0 mm
07:20 AM 50.9°F10.5°C 48.1°F8.9°C 90% 9.2 mph NW14.8 kmh NW 11.5 mph18.5 kmh 29.88 in1011.9 mb - 0.00 in0.0 mm 0.00 in0.0 mm
07:25 AM 51.0°F10.6°C 48.2°F9.0°C 90% 11.5 mph NW18.5 kmh NW 13.8 mph22.2 kmh 29.88 in1011.9 mb - 0.00 in0.0 mm 0.00 in0.0 mm
07:30 AM 51.1°F10.6°C 47.9°F8.8°C 89% 11.5 mph WNW18.5 kmh WNW 15.0 mph24.1 kmh 29.88 in1011.9 mb - 0.00 in0.0 mm 0.00 in0.0 mm
07:35 AM 51.1°F10.6°C 48.0°F8.9°C 89% 11.5 mph WNW18.5 kmh WNW 15.0 mph24.1 kmh 29.88 in1011.9 mb - 0.00 in0.0 mm 0.00 in0.0 mm
07:40 AM 51.2°F10.7°C 48.1°F8.9°C 89% 9.2 mph WNW14.8 kmh WNW 16.1 mph25.9 kmh 29.88 in1011.9 mb - 0.00 in0.0 mm 0.00 in0.0 mm
07:45 AM 51.3°F10.7°C 48.2°F9.0°C 89% 9.2 mph WNW14.8 kmh WNW 11.5 mph18.5 kmh 29.88 in1011.9 mb - 0.00 in0.0 mm 0.00 in0.0 mm
07:50 AM 51.3°F10.7°C 48.2°F9.0°C 89% 10.4 mph NW16.7 kmh NW 15.0 mph24.1 kmh 29.89 in1012.2 mb - 0.00 in0.0 mm 0.00 in0.0 mm
07:55 AM 51.3°F10.7°C 48.2°F9.0°C 89% 11.5 mph NW18.5 kmh NW 18.4 mph29.6 kmh 29.89 in1012.2 mb - 0.00 in0.0 mm 0.00 in0.0 mm
08:00 AM 51.4°F10.8°C 48.2°F9.0°C 89% 13.8 mph WNW22.2 kmh WNW 16.1 mph25.9 kmh 29.89 in1012.2 mb - 0.00 in0.0 mm 0.00 in0.0 mm
08:10 AM 51.5°F10.8°C 48.4°F9.1°C 89% 8.1 mph WNW13.0 kmh WNW 16.1 mph25.9 kmh 29.89 in1012.2 mb - 0.00 in0.0 mm 0.00 in0.0 mm
08:15 AM 51.5°F10.8°C 48.0°F8.9°C 88% 11.5 mph NW18.5 kmh NW 16.1 mph25.9 kmh 29.89 in1012.2 mb - 0.00 in0.0 mm 0.00 in0.0 mm
08:20 AM 51.5°F10.8°C 48.0°F8.9°C 88% 6.9 mph W11.1 kmh W 12.7 mph20.4 kmh 29.89 in1012.2 mb - 0.00 in0.0 mm 0.00 in0.0 mm
08:25 AM 51.5°F10.8°C 48.3°F9.1°C 89% 9.2 mph WNW14.8 kmh WNW 12.7 mph20.4 kmh 29.89 in1012.2 mb - 0.00 in0.0 mm 0.00 in0.0 mm
08:30 AM 51.6°F10.9°C 48.2°F9.0°C 88% 9.2 mph W14.8 kmh W 12.7 mph20.4 kmh 29.89 in1012.2 mb - 0.00 in0.0 mm 0.00 in0.0 mm
08:35 AM 51.7°F10.9°C 48.3°F9.1°C 88% 9.2 mph W14.8 kmh W 12.7 mph20.4 kmh 29.90 in1012.5 mb - 0.00 in0.0 mm 0.00 in0.0 mm
08:40 AM 51.7°F10.9°C 48.3°F9.1°C 88% 12.7 mph NW20.4 kmh NW 19.6 mph31.5 kmh 29.90 in1012.5 mb - 0.00 in0.0 mm 0.00 in0.0 mm
08:45 AM 51.7°F10.9°C 48.3°F9.1°C 88% 9.2 mph WNW14.8 kmh WNW 11.5 mph18.5 kmh 29.90 in1012.5 mb - 0.00 in0.0 mm 0.00 in0.0 mm
08:50 AM 51.6°F10.9°C 48.2°F9.0°C 88% 12.7 mph NW20.4 kmh NW 19.6 mph31.5 kmh 29.90 in1012.5 mb - 0.00 in0.0 mm 0.00 in0.0 mm
08:55 AM 51.6°F10.9°C 48.2°F9.0°C 88% 11.5 mph WNW18.5 kmh WNW 16.1 mph25.9 kmh 29.91 in1012.9 mb - 0.00 in0.0 mm 0.00 in0.0 mm
09:00 AM 51.7°F10.9°C 48.2°F9.0°C 88% 13.8 mph WNW22.2 kmh WNW 17.3 mph27.8 kmh 29.91 in1012.9 mb - 0.00 in0.0 mm 0.00 in0.0 mm
09:10 AM 51.7°F10.9°C 48.3°F9.1°C 88% 10.4 mph WNW16.7 kmh WNW 13.8 mph22.2 kmh 29.91 in1012.9 mb - 0.00 in0.0 mm 0.00 in0.0 mm
09:15 AM 51.8°F11.0°C 48.4°F9.1°C 88% 10.4 mph NW16.7 kmh NW 15.0 mph24.1 kmh 29.91 in1012.9 mb - 0.00 in0.0 mm 0.00 in0.0 mm
09:20 AM 52.0°F11.1°C 48.2°F9.0°C 87% 9.2 mph WNW14.8 kmh WNW 16.1 mph25.9 kmh 29.90 in1012.5 mb - 0.00 in0.0 mm 0.00 in0.0 mm
09:25 AM 52.0°F11.1°C 48.2°F9.0°C 87% 11.5 mph WNW18.5 kmh WNW 15.0 mph24.1 kmh 29.91 in1012.9 mb - 0.00 in0.0 mm 0.00 in0.0 mm
09:30 AM 52.0°F11.1°C 48.2°F9.0°C 87% 9.2 mph WNW14.8 kmh WNW 11.5 mph18.5 kmh 29.91 in1012.9 mb - 0.00 in0.0 mm 0.00 in0.0 mm
09:35 AM 51.9°F11.1°C 48.5°F9.2°C 88% 9.2 mph W14.8 kmh W 11.5 mph18.5 kmh 29.91 in1012.9 mb - 0.00 in0.0 mm 0.00 in0.0 mm
09:40 AM 51.9°F11.1°C 48.5°F9.2°C 88% 9.2 mph WNW14.8 kmh WNW 13.8 mph22.2 kmh 29.91 in1012.9 mb - 0.00 in0.0 mm 0.00 in0.0 mm
09:45 AM 51.8°F11.0°C 48.4°F9.1°C 88% 8.1 mph WNW13.0 kmh WNW 10.4 mph16.7 kmh 29.92 in1013.2 mb - 0.00 in0.0 mm 0.00 in0.0 mm
09:50 AM 51.8°F11.0°C 48.4°F9.1°C 88% 11.5 mph WNW18.5 kmh WNW 17.3 mph27.8 kmh 29.92 in1013.2 mb - 0.00 in0.0 mm 0.00 in0.0 mm
09:55 AM 51.9°F11.1°C 48.2°F9.0°C 87% 8.1 mph WNW13.0 kmh WNW 10.4 mph16.7 kmh 29.92 in1013.2 mb - 0.00 in0.0 mm 0.00 in0.0 mm
10:00 AM 52.2°F11.2°C 48.2°F9.0°C 86% 10.4 mph WNW16.7 kmh WNW 11.5 mph18.5 kmh 29.92 in1013.2 mb - 0.00 in0.0 mm 0.00 in0.0 mm
10:10 AM 52.1°F11.2°C 48.1°F8.9°C 86% 12.7 mph WNW20.4 kmh WNW 18.4 mph29.6 kmh 29.92 in1013.2 mb - 0.00 in0.0 mm 0.00 in0.0 mm
10:15 AM 52.1°F11.2°C 48.0°F8.9°C 86% 12.7 mph WNW20.4 kmh WNW 13.8 mph22.2 kmh 29.93 in1013.5 mb - 0.00 in0.0 mm 0.00 in0.0 mm
10:20 AM 52.1°F11.2°C 48.0°F8.9°C 86% 11.5 mph WNW18.5 kmh WNW 11.5 mph18.5 kmh 29.93 in1013.5 mb - 0.00 in0.0 mm 0.00 in0.0 mm
10:25 AM 52.2°F11.2°C 48.1°F8.9°C 86% 6.9 mph WNW11.1 kmh WNW 10.4 mph16.7 kmh 29.93 in1013.5 mb - 0.00 in0.0 mm 0.00 in0.0 mm
10:30 AM 52.2°F11.2°C 48.2°F9.0°C 86% 8.1 mph WNW13.0 kmh WNW 10.4 mph16.7 kmh 29.93 in1013.5 mb - 0.00 in0.0 mm 0.00 in0.0 mm
10:35 AM 52.2°F11.2°C 48.2°F9.0°C 86% 10.4 mph W16.7 kmh W 13.8 mph22.2 kmh 29.93 in1013.5 mb - 0.00 in0.0 mm 0.00 in0.0 mm
10:40 AM 52.2°F11.2°C 48.1°F8.9°C 86% 10.4 mph WNW16.7 kmh WNW 13.8 mph22.2 kmh 29.93 in1013.5 mb - 0.00 in0.0 mm 0.00 in0.0 mm
10:45 AM 52.2°F11.2°C 47.8°F8.8°C 85% 10.4 mph WNW16.7 kmh WNW 13.8 mph22.2 kmh 29.93 in1013.5 mb - 0.00 in0.0 mm 0.00 in0.0 mm
10:50 AM 52.2°F11.2°C 47.8°F8.8°C 85% 11.5 mph WNW18.5 kmh WNW 19.6 mph31.5 kmh 29.94 in1013.9 mb - 0.00 in0.0 mm 0.00 in0.0 mm
10:55 AM 52.2°F11.2°C 47.9°F8.8°C 85% 8.1 mph WNW13.0 kmh WNW 10.4 mph16.7 kmh 29.94 in1013.9 mb - 0.00 in0.0 mm 0.00 in0.0 mm
11:00 AM 52.4°F11.3°C 48.0°F8.9°C 85% 12.7 mph WNW20.4 kmh WNW 15.0 mph24.1 kmh 29.94 in1013.9 mb - 0.00 in0.0 mm 0.00 in0.0 mm
11:10 AM 52.5°F11.4°C 48.1°F8.9°C 85% 8.1 mph W13.0 kmh W 11.5 mph18.5 kmh 29.95 in1014.2 mb - 0.00 in0.0 mm 0.00 in0.0 mm
11:15 AM 52.4°F11.3°C 48.0°F8.9°C 85% 10.4 mph W16.7 kmh W 13.8 mph22.2 kmh 29.95 in1014.2 mb - 0.00 in0.0 mm 0.00 in0.0 mm
11:20 AM 52.1°F11.2°C 47.7°F8.7°C 85% 11.5 mph WNW18.5 kmh WNW 17.3 mph27.8 kmh 29.95 in1014.2 mb - 0.00 in0.0 mm 0.00 in0.0 mm
11:25 AM 52.1°F11.2°C 47.7°F8.7°C 85% 10.4 mph WNW16.7 kmh WNW 15.0 mph24.1 kmh 29.95 in1014.2 mb - 0.00 in0.0 mm 0.00 in0.0 mm
11:30 AM 52.2°F11.2°C 47.8°F8.8°C 85% 9.2 mph W14.8 kmh W 13.8 mph22.2 kmh 29.96 in1014.6 mb - 0.00 in0.0 mm 0.00 in0.0 mm
11:35 AM 52.3°F11.3°C 47.9°F8.8°C 85% 8.1 mph WNW13.0 kmh WNW 9.2 mph14.8 kmh 29.96 in1014.6 mb - 0.00 in0.0 mm 0.00 in0.0 mm
11:40 AM 52.5°F11.4°C 47.8°F8.8°C 84% 10.4 mph NW16.7 kmh NW 12.7 mph20.4 kmh 29.96 in1014.6 mb - 0.00 in0.0 mm 0.00 in0.0 mm
11:45 AM 52.8°F11.6°C 47.8°F8.8°C 83% 10.4 mph WNW16.7 kmh WNW 11.5 mph18.5 kmh 29.96 in1014.6 mb - 0.00 in0.0 mm 0.00 in0.0 mm
11:50 AM 53.0°F11.7°C 48.0°F8.9°C 83% 10.4 mph W16.7 kmh W 16.1 mph25.9 kmh 29.96 in1014.6 mb - 0.00 in0.0 mm 0.00 in0.0 mm
11:55 AM 53.1°F11.7°C 48.1°F8.9°C 83% 12.7 mph WNW20.4 kmh WNW 17.3 mph27.8 kmh 29.96 in1014.6 mb - 0.00 in0.0 mm 0.00 in0.0 mm
12:00 PM 52.9°F11.6°C 48.2°F9.0°C 84% 9.2 mph WNW14.8 kmh WNW 11.5 mph18.5 kmh 29.96 in1014.6 mb - 0.00 in0.0 mm 0.00 in0.0 mm
12:10 PM 52.1°F11.2°C 47.7°F8.7°C 85% 10.4 mph W16.7 kmh W 17.3 mph27.8 kmh 29.97 in1014.9 mb - 0.00 in0.0 mm 0.00 in0.0 mm
12:15 PM 51.9°F11.1°C 47.6°F8.7°C 85% 12.7 mph NW20.4 kmh NW 18.4 mph29.6 kmh 29.96 in1014.6 mb - 0.00 in0.0 mm 0.00 in0.0 mm
12:20 PM 51.9°F11.1°C 47.5°F8.6°C 85% 9.2 mph WNW14.8 kmh WNW 11.5 mph18.5 kmh 29.96 in1014.6 mb - 0.00 in0.0 mm 0.00 in0.0 mm
12:25 PM 52.1°F11.2°C 47.7°F8.7°C 85% 11.5 mph WNW18.5 kmh WNW 16.1 mph25.9 kmh 29.96 in1014.6 mb - 0.00 in0.0 mm 0.00 in0.0 mm
12:30 PM 52.3°F11.3°C 47.6°F8.7°C 84% 11.5 mph WNW18.5 kmh WNW 16.1 mph25.9 kmh 29.97 in1014.9 mb - 0.00 in0.0 mm 0.00 in0.0 mm
12:35 PM 52.2°F11.2°C 47.5°F8.6°C 84% 10.4 mph WNW16.7 kmh WNW 11.5 mph18.5 kmh 29.97 in1014.9 mb - 0.00 in0.0 mm 0.00 in0.0 mm
12:40 PM 52.5°F11.4°C 47.8°F8.8°C 84% 11.5 mph NW18.5 kmh NW 17.3 mph27.8 kmh 29.97 in1014.9 mb - 0.00 in0.0 mm 0.00 in0.0 mm
12:45 PM 52.5°F11.4°C 47.5°F8.6°C 83% 11.5 mph WNW18.5 kmh WNW 13.8 mph22.2 kmh 29.97 in1014.9 mb - 0.00 in0.0 mm 0.00 in0.0 mm
12:50 PM 52.6°F11.4°C 47.6°F8.7°C 83% 10.4 mph WNW16.7 kmh WNW 13.8 mph22.2 kmh 29.97 in1014.9 mb - 0.00 in0.0 mm 0.00 in0.0 mm
12:55 PM 52.8°F11.6°C 47.8°F8.8°C 83% 5.8 mph WNW9.3 kmh WNW 11.5 mph18.5 kmh 29.98 in1015.2 mb - 0.00 in0.0 mm 0.00 in0.0 mm
01:00 PM 52.9°F11.6°C 47.6°F8.7°C 82% 11.5 mph WNW18.5 kmh WNW 12.7 mph20.4 kmh 29.98 in1015.2 mb - 0.00 in0.0 mm 0.00 in0.0 mm
01:10 PM 53.3°F11.8°C 47.9°F8.8°C 82% 9.2 mph WNW14.8 kmh WNW 12.7 mph20.4 kmh 29.98 in1015.2 mb - 0.00 in0.0 mm 0.00 in0.0 mm
01:15 PM 53.4°F11.9°C 47.7°F8.7°C 81% 12.7 mph WNW20.4 kmh WNW 18.4 mph29.6 kmh 29.98 in1015.2 mb - 0.00 in0.0 mm 0.00 in0.0 mm
01:20 PM 53.7°F12.1°C 48.0°F8.9°C 81% 12.7 mph WNW20.4 kmh WNW 16.1 mph25.9 kmh 29.98 in1015.2 mb - 0.00 in0.0 mm 0.00 in0.0 mm
01:25 PM 53.8°F12.1°C 47.8°F8.8°C 80% 10.4 mph NW16.7 kmh NW 16.1 mph25.9 kmh 29.98 in1015.2 mb - 0.00 in0.0 mm 0.00 in0.0 mm
01:30 PM 54.1°F12.3°C 48.4°F9.1°C 81% 9.2 mph W14.8 kmh W 11.5 mph18.5 kmh 29.98 in1015.2 mb - 0.00 in0.0 mm 0.00 in0.0 mm
01:35 PM 54.1°F12.3°C 48.1°F8.9°C 80% 12.7 mph WNW20.4 kmh WNW 18.4 mph29.6 kmh 29.98 in1015.2 mb - 0.00 in0.0 mm 0.00 in0.0 mm
01:40 PM 54.0°F12.2°C 48.0°F8.9°C 80% 13.8 mph WNW22.2 kmh WNW 19.6 mph31.5 kmh 29.98 in1015.2 mb - 0.00 in0.0 mm 0.00 in0.0 mm
01:45 PM 53.5°F11.9°C 47.5°F8.6°C 80% 12.7 mph WNW20.4 kmh WNW 16.1 mph25.9 kmh 29.98 in1015.2 mb - 0.00 in0.0 mm 0.00 in0.0 mm
01:50 PM 53.4°F11.9°C 47.4°F8.6°C 80% 11.5 mph W18.5 kmh W 18.4 mph29.6 kmh 29.98 in1015.2 mb - 0.00 in0.0 mm 0.00 in0.0 mm
01:55 PM 53.5°F11.9°C 47.8°F8.8°C 81% 8.1 mph W13.0 kmh W 11.5 mph18.5 kmh 29.99 in1015.6 mb - 0.00 in0.0 mm 0.00 in0.0 mm
02:00 PM 53.8°F12.1°C 47.7°F8.7°C 80% 9.2 mph WNW14.8 kmh WNW 12.7 mph20.4 kmh 29.99 in1015.6 mb - 0.00 in0.0 mm 0.00 in0.0 mm
02:10 PM 54.2°F12.3°C 47.1°F8.4°C 77% 11.5 mph WNW18.5 kmh WNW 12.7 mph20.4 kmh 29.99 in1015.6 mb - 0.00 in0.0 mm 0.00 in0.0 mm
02:15 PM 54.5°F12.5°C 47.4°F8.6°C 77% 9.2 mph NW14.8 kmh NW 13.8 mph22.2 kmh 29.99 in1015.6 mb - 0.00 in0.0 mm 0.00 in0.0 mm
02:20 PM 54.5°F12.5°C 47.1°F8.4°C 76% 12.7 mph W20.4 kmh W 17.3 mph27.8 kmh 29.99 in1015.6 mb - 0.00 in0.0 mm 0.00 in0.0 mm
02:25 PM 54.8°F12.7°C 47.3°F8.5°C 76% 16.1 mph NW25.9 kmh NW 25.3 mph40.7 kmh 29.99 in1015.6 mb - 0.00 in0.0 mm 0.00 in0.0 mm
02:30 PM 55.3°F12.9°C 48.2°F9.0°C 77% 8.1 mph WNW13.0 kmh WNW 11.5 mph18.5 kmh 29.99 in1015.6 mb - 0.00 in0.0 mm 0.00 in0.0 mm
02:35 PM 55.5°F13.1°C 47.3°F8.5°C 74% 11.5 mph WNW18.5 kmh WNW 18.4 mph29.6 kmh 29.99 in1015.6 mb - 0.00 in0.0 mm 0.00 in0.0 mm
02:40 PM 55.3°F12.9°C 47.9°F8.8°C 76% 9.2 mph WNW14.8 kmh WNW 10.4 mph16.7 kmh 29.99 in1015.6 mb - 0.00 in0.0 mm 0.00 in0.0 mm
02:45 PM 55.6°F13.1°C 47.8°F8.8°C 75% 8.1 mph W13.0 kmh W 11.5 mph18.5 kmh 29.99 in1015.6 mb - 0.00 in0.0 mm 0.00 in0.0 mm
02:50 PM 57.0°F13.9°C 48.4°F9.1°C 73% 9.2 mph WNW14.8 kmh WNW 13.8 mph22.2 kmh 29.99 in1015.6 mb - 0.00 in0.0 mm 0.00 in0.0 mm
02:55 PM 58.1°F14.5°C 48.4°F9.1°C 70% 11.5 mph W18.5 kmh W 13.8 mph22.2 kmh 29.99 in1015.6 mb - 0.00 in0.0 mm 0.00 in0.0 mm
03:00 PM 58.3°F14.6°C 48.6°F9.2°C 70% 10.4 mph W16.7 kmh W 12.7 mph20.4 kmh 29.99 in1015.6 mb - 0.00 in0.0 mm 0.00 in0.0 mm
03:10 PM 58.9°F14.9°C 48.4°F9.1°C 68% 11.5 mph W18.5 kmh W 17.3 mph27.8 kmh 29.98 in1015.2 mb - 0.00 in0.0 mm 0.00 in0.0 mm
03:15 PM 58.4°F14.7°C 47.9°F8.8°C 68% 13.8 mph WNW22.2 kmh WNW 18.4 mph29.6 kmh 29.99 in1015.6 mb - 0.00 in0.0 mm 0.00 in0.0 mm
03:20 PM 58.1°F14.5°C 47.6°F8.7°C 68% 12.7 mph W20.4 kmh W 17.3 mph27.8 kmh 29.99 in1015.6 mb - 0.00 in0.0 mm 0.00 in0.0 mm
03:25 PM 57.7°F14.3°C 47.6°F8.7°C 69% 11.5 mph WNW18.5 kmh WNW 17.3 mph27.8 kmh 29.99 in1015.6 mb - 0.00 in0.0 mm 0.00 in0.0 mm
03:30 PM 58.2°F14.6°C 47.3°F8.5°C 67% 10.4 mph NW16.7 kmh NW 17.3 mph27.8 kmh 29.99 in1015.6 mb - 0.00 in0.0 mm 0.00 in0.0 mm
03:35 PM 58.8°F14.9°C 48.3°F9.1°C 68% 11.5 mph W18.5 kmh W 20.7 mph33.3 kmh 29.99 in1015.6 mb - 0.00 in0.0 mm 0.00 in0.0 mm
03:40 PM 58.4°F14.7°C 48.3°F9.1°C 69% 11.5 mph WNW18.5 kmh WNW 15.0 mph24.1 kmh 29.99 in1015.6 mb - 0.00 in0.0 mm 0.00 in0.0 mm
03:45 PM 58.6°F14.8°C 47.6°F8.7°C 67% 12.7 mph W20.4 kmh W 19.6 mph31.5 kmh 29.99 in1015.6 mb - 0.00 in0.0 mm 0.00 in0.0 mm
03:50 PM 58.2°F14.6°C 47.3°F8.5°C 67% 13.8 mph WNW22.2 kmh WNW 18.4 mph29.6 kmh 29.99 in1015.6 mb - 0.00 in0.0 mm 0.00 in0.0 mm
03:55 PM 58.3°F14.6°C 47.8°F8.8°C 68% 10.4 mph W16.7 kmh W 13.8 mph22.2 kmh 29.99 in1015.6 mb - 0.00 in0.0 mm 0.00 in0.0 mm
04:00 PM 58.2°F14.6°C 46.9°F8.3°C 66% 12.7 mph WNW20.4 kmh WNW 18.4 mph29.6 kmh 29.99 in1015.6 mb - 0.00 in0.0 mm 0.00 in0.0 mm
04:10 PM 58.9°F14.9°C 47.6°F8.7°C 66% 11.5 mph W18.5 kmh W 17.3 mph27.8 kmh 29.99 in1015.6 mb - 0.00 in0.0 mm 0.00 in0.0 mm
04:15 PM 58.4°F14.7°C 47.1°F8.4°C 66% 11.5 mph W18.5 kmh W 16.1 mph25.9 kmh 29.99 in1015.6 mb - 0.00 in0.0 mm 0.00 in0.0 mm
04:20 PM 58.0°F14.4°C 46.7°F8.2°C 66% 12.7 mph WNW20.4 kmh WNW 16.1 mph25.9 kmh 29.99 in1015.6 mb - 0.00 in0.0 mm 0.00 in0.0 mm
04:25 PM 58.1°F14.5°C 47.2°F8.4°C 67% 11.5 mph WNW18.5 kmh WNW 16.1 mph25.9 kmh 29.99 in1015.6 mb - 0.00 in0.0 mm 0.00 in0.0 mm
04:30 PM 58.0°F14.4°C 47.5°F8.6°C 68% 11.5 mph W18.5 kmh W 16.1 mph25.9 kmh 29.99 in1015.6 mb - 0.00 in0.0 mm 0.00 in0.0 mm
04:35 PM 57.8°F14.3°C 47.3°F8.5°C 68% 12.7 mph W20.4 kmh W 16.1 mph25.9 kmh 29.99 in1015.6 mb - 0.00 in0.0 mm 0.00 in0.0 mm
04:40 PM 57.7°F14.3°C 46.8°F8.2°C 67% 12.7 mph W20.4 kmh W 17.3 mph27.8 kmh 29.99 in1015.6 mb - 0.00 in0.0 mm 0.00 in0.0 mm
04:45 PM 57.9°F14.4°C 47.0°F8.3°C 67% 11.5 mph W18.5 kmh W 21.9 mph35.2 kmh 30.00 in1015.9 mb - 0.00 in0.0 mm 0.00 in0.0 mm
04:50 PM 57.2°F14.0°C 46.4°F8.0°C 67% 12.7 mph W20.4 kmh W 16.1 mph25.9 kmh 30.00 in1015.9 mb - 0.00 in0.0 mm 0.00 in0.0 mm
04:55 PM 57.3°F14.1°C 46.4°F8.0°C 67% 12.7 mph WNW20.4 kmh WNW 15.0 mph24.1 kmh 30.00 in1015.9 mb - 0.00 in0.0 mm 0.00 in0.0 mm
05:00 PM 57.7°F14.3°C 46.9°F8.3°C 67% 9.2 mph WNW14.8 kmh WNW 13.8 mph22.2 kmh 30.00 in1015.9 mb - 0.00 in0.0 mm 0.00 in0.0 mm
05:10 PM 57.2°F14.0°C 45.9°F7.7°C 66% 12.7 mph WNW20.4 kmh WNW 16.1 mph25.9 kmh 30.00 in1015.9 mb - 0.00 in0.0 mm 0.00 in0.0 mm
05:15 PM 57.0°F13.9°C 46.1°F7.8°C 67% 10.4 mph NW16.7 kmh NW 16.1 mph25.9 kmh 30.00 in1015.9 mb - 0.00 in0.0 mm 0.00 in0.0 mm
05:20 PM 56.9°F13.8°C 46.1°F7.8°C 67% 12.7 mph W20.4 kmh W 15.0 mph24.1 kmh 30.00 in1015.9 mb - 0.00 in0.0 mm 0.00 in0.0 mm
05:25 PM 56.6°F13.7°C 45.7°F7.6°C 67% 12.7 mph W20.4 kmh W 18.4 mph29.6 kmh 30.01 in1016.3 mb - 0.00 in0.0 mm 0.00 in0.0 mm
05:30 PM 56.4°F13.6°C 46.0°F7.8°C 68% 10.4 mph W16.7 kmh W 17.3 mph27.8 kmh 30.01 in1016.3 mb - 0.00 in0.0 mm 0.00 in0.0 mm
05:35 PM 55.9°F13.3°C 45.5°F7.5°C 68% 12.7 mph WSW20.4 kmh WSW 13.8 mph22.2 kmh 30.01 in1016.3 mb - 0.00 in0.0 mm 0.00 in0.0 mm
05:40 PM 56.0°F13.3°C 45.6°F7.6°C 68% 11.5 mph WNW18.5 kmh WNW 17.3 mph27.8 kmh 30.01 in1016.3 mb - 0.00 in0.0 mm 0.00 in0.0 mm
05:45 PM 55.4°F13.0°C 45.0°F7.2°C 68% 10.4 mph W16.7 kmh W 11.5 mph18.5 kmh 30.01 in1016.3 mb - 0.00 in0.0 mm 0.00 in0.0 mm
05:50 PM 54.7°F12.6°C 45.1°F7.3°C 70% 11.5 mph WNW18.5 kmh WNW 15.0 mph24.1 kmh 30.01 in1016.3 mb - 0.00 in0.0 mm 0.00 in0.0 mm
05:55 PM 55.0°F12.8°C 45.0°F7.2°C 69% 12.7 mph NW20.4 kmh NW 16.1 mph25.9 kmh 30.01 in1016.3 mb - 0.00 in0.0 mm 0.00 in0.0 mm
06:00 PM 55.6°F13.1°C 45.6°F7.6°C 69% 12.7 mph WNW20.4 kmh WNW 17.3 mph27.8 kmh 30.02 in1016.6 mb - 0.00 in0.0 mm 0.00 in0.0 mm
06:10 PM 55.4°F13.0°C 45.8°F7.7°C 70% 11.5 mph W18.5 kmh W 18.4 mph29.6 kmh 30.02 in1016.6 mb - 0.00 in0.0 mm 0.00 in0.0 mm
06:15 PM 54.6°F12.6°C 45.0°F7.2°C 70% 13.8 mph W22.2 kmh W 16.1 mph25.9 kmh 30.02 in1016.6 mb - 0.00 in0.0 mm 0.00 in0.0 mm
06:20 PM 53.7°F12.1°C 44.9°F7.2°C 72% 9.2 mph WNW14.8 kmh WNW 11.5 mph18.5 kmh 30.02 in1016.6 mb - 0.00 in0.0 mm 0.00 in0.0 mm
06:25 PM 53.9°F12.2°C 45.5°F7.5°C 73% 10.4 mph WNW16.7 kmh WNW 12.7 mph20.4 kmh 30.02 in1016.6 mb - 0.00 in0.0 mm 0.00 in0.0 mm
06:30 PM 54.7°F12.6°C 45.5°F7.5°C 71% 11.5 mph WSW18.5 kmh WSW 18.4 mph29.6 kmh 30.02 in1016.6 mb - 0.00 in0.0 mm 0.00 in0.0 mm
06:35 PM 54.6°F12.6°C 45.4°F7.4°C 71% 11.5 mph W18.5 kmh W 15.0 mph24.1 kmh 30.02 in1016.6 mb - 0.00 in0.0 mm 0.00 in0.0 mm
06:40 PM 54.0°F12.2°C 44.8°F7.1°C 71% 13.8 mph W22.2 kmh W 19.6 mph31.5 kmh 30.02 in1016.6 mb - 0.00 in0.0 mm 0.00 in0.0 mm
06:45 PM 53.7°F12.1°C 45.2°F7.3°C 73% 11.5 mph WNW18.5 kmh WNW 13.8 mph22.2 kmh 30.02 in1016.6 mb - 0.00 in0.0 mm 0.00 in0.0 mm
06:50 PM 53.2°F11.8°C 45.2°F7.3°C 74% 9.2 mph WNW14.8 kmh WNW 11.5 mph18.5 kmh 30.02 in1016.6 mb - 0.00 in0.0 mm 0.00 in0.0 mm
06:55 PM 53.1°F11.7°C 45.4°F7.4°C 75% 8.1 mph WNW13.0 kmh WNW 13.8 mph22.2 kmh 30.02 in1016.6 mb - 0.00 in0.0 mm 0.00 in0.0 mm
07:00 PM 53.3°F11.8°C 45.6°F7.6°C 75% 9.2 mph W14.8 kmh W 11.5 mph18.5 kmh 30.02 in1016.6 mb - 0.00 in0.0 mm 0.00 in0.0 mm
07:10 PM 53.0°F11.7°C 45.3°F7.4°C 75% 9.2 mph WNW14.8 kmh WNW 12.7 mph20.4 kmh 30.02 in1016.6 mb - 0.00 in0.0 mm 0.00 in0.0 mm
07:15 PM 52.8°F11.6°C 45.1°F7.3°C 75% 6.9 mph WNW11.1 kmh WNW 8.1 mph13.0 kmh 30.02 in1016.6 mb - 0.00 in0.0 mm 0.00 in0.0 mm
07:20 PM 52.4°F11.3°C 45.0°F7.2°C 76% 6.9 mph WNW11.1 kmh WNW 11.5 mph18.5 kmh 30.02 in1016.6 mb - 0.00 in0.0 mm 0.00 in0.0 mm
07:25 PM 52.1°F11.2°C 44.8°F7.1°C 76% 6.9 mph W11.1 kmh W 8.1 mph13.0 kmh 30.02 in1016.6 mb - 0.00 in0.0 mm 0.00 in0.0 mm
07:30 PM 52.0°F11.1°C 45.0°F7.2°C 77% 4.6 mph WNW7.4 kmh WNW 8.1 mph13.0 kmh 30.02 in1016.6 mb - 0.00 in0.0 mm 0.00 in0.0 mm
07:35 PM 51.8°F11.0°C 44.8°F7.1°C 77% 4.6 mph W7.4 kmh W 9.2 mph14.8 kmh 30.02 in1016.6 mb - 0.00 in0.0 mm 0.00 in0.0 mm
07:40 PM 51.8°F11.0°C 44.8°F7.1°C 77% 6.9 mph W11.1 kmh W 10.4 mph16.7 kmh 30.02 in1016.6 mb - 0.00 in0.0 mm 0.00 in0.0 mm
07:45 PM 51.9°F11.1°C 44.6°F7.0°C 76% 6.9 mph W11.1 kmh W 10.4 mph16.7 kmh 30.02 in1016.6 mb - 0.00 in0.0 mm 0.00 in0.0 mm
07:50 PM 52.0°F11.1°C 44.7°F7.1°C 76% 4.6 mph W7.4 kmh W 6.9 mph11.1 kmh 30.02 in1016.6 mb - 0.00 in0.0 mm 0.00 in0.0 mm
07:55 PM 51.8°F11.0°C 44.5°F6.9°C 76% 5.8 mph W9.3 kmh W 6.9 mph11.1 kmh 30.02 in1016.6 mb - 0.00 in0.0 mm 0.00 in0.0 mm
08:00 PM 51.4°F10.8°C 44.5°F6.9°C 77% 4.6 mph W7.4 kmh W 6.9 mph11.1 kmh 30.03 in1016.9 mb - 0.00 in0.0 mm 0.00 in0.0 mm
08:10 PM 51.1°F10.6°C 44.8°F7.1°C 79% 4.6 mph W7.4 kmh W 8.1 mph13.0 kmh 30.03 in1016.9 mb - 0.00 in0.0 mm 0.00 in0.0 mm
08:15 PM 51.0°F10.6°C 45.0°F7.2°C 80% 4.6 mph W7.4 kmh W 6.9 mph11.1 kmh 30.03 in1016.9 mb - 0.00 in0.0 mm 0.00 in0.0 mm
08:20 PM 51.2°F10.7°C 45.2°F7.3°C 80% 3.5 mph W5.6 kmh W 6.9 mph11.1 kmh 30.03 in1016.9 mb - 0.00 in0.0 mm 0.00 in0.0 mm
08:25 PM 51.2°F10.7°C 45.2°F7.3°C 80% 5.8 mph W9.3 kmh W 9.2 mph14.8 kmh 30.03 in1016.9 mb - 0.00 in0.0 mm 0.00 in0.0 mm
08:30 PM 51.3°F10.7°C 45.3°F7.4°C 80% 5.8 mph W9.3 kmh W 11.5 mph18.5 kmh 30.03 in1016.9 mb - 0.00 in0.0 mm 0.00 in0.0 mm
08:35 PM 51.1°F10.6°C 45.1°F7.3°C 80% 4.6 mph W7.4 kmh W 6.9 mph11.1 kmh 30.03 in1016.9 mb - 0.00 in0.0 mm 0.00 in0.0 mm
08:40 PM 50.5°F10.3°C 44.9°F7.2°C 81% 4.6 mph W7.4 kmh W 5.8 mph9.3 kmh 30.03 in1016.9 mb - 0.00 in0.0 mm 0.00 in0.0 mm
08:45 PM 50.1°F10.1°C 44.5°F6.9°C 81% 4.6 mph W7.4 kmh W 5.8 mph9.3 kmh 30.03 in1016.9 mb - 0.00 in0.0 mm 0.00 in0.0 mm
08:50 PM 49.5°F9.7°C 44.2°F6.8°C 82% 2.3 mph W3.7 kmh W 3.5 mph5.6 kmh 30.03 in1016.9 mb - 0.00 in0.0 mm 0.00 in0.0 mm
08:55 PM 49.1°F9.5°C 44.2°F6.8°C 83% 4.6 mph W7.4 kmh W 5.8 mph9.3 kmh 30.04 in1017.3 mb - 0.00 in0.0 mm 0.00 in0.0 mm
09:00 PM 48.8°F9.3°C 43.9°F6.6°C 83% 2.3 mph W3.7 kmh W 3.5 mph5.6 kmh 30.04 in1017.3 mb - 0.00 in0.0 mm 0.00 in0.0 mm
09:10 PM 48.1°F8.9°C 43.8°F6.6°C 85% 3.5 mph WSW5.6 kmh WSW 6.9 mph11.1 kmh 30.04 in1017.3 mb - 0.00 in0.0 mm 0.00 in0.0 mm
09:15 PM 48.4°F9.1°C 44.1°F6.7°C 85% 3.5 mph W5.6 kmh W 5.8 mph9.3 kmh 30.04 in1017.3 mb - 0.00 in0.0 mm 0.00 in0.0 mm
09:20 PM 48.2°F9.0°C 43.9°F6.6°C 85% 3.5 mph WSW5.6 kmh WSW 3.5 mph5.6 kmh 30.04 in1017.3 mb - 0.00 in0.0 mm 0.00 in0.0 mm
09:25 PM 47.9°F8.8°C 43.6°F6.4°C 85% 2.3 mph WSW3.7 kmh WSW 3.5 mph5.6 kmh 30.04 in1017.3 mb - 0.00 in0.0 mm 0.00 in0.0 mm
09:30 PM 47.4°F8.6°C 43.5°F6.4°C 86% 2.3 mph WSW3.7 kmh WSW 3.5 mph5.6 kmh 30.04 in1017.3 mb - 0.00 in0.0 mm 0.00 in0.0 mm
09:35 PM 47.1°F8.4°C 43.4°F6.3°C 87% 2.3 mph WSW3.7 kmh WSW 3.5 mph5.6 kmh 30.04 in1017.3 mb - 0.00 in0.0 mm 0.00 in0.0 mm
09:40 PM 46.9°F8.3°C 43.0°F6.1°C 86% 2.3 mph WSW3.7 kmh WSW 3.5 mph5.6 kmh 30.04 in1017.3 mb - 0.00 in0.0 mm 0.00 in0.0 mm
09:45 PM 46.6°F8.1°C 42.9°F6.1°C 87% 2.3 mph WSW3.7 kmh WSW 3.5 mph5.6 kmh 30.04 in1017.3 mb - 0.00 in0.0 mm 0.00 in0.0 mm
09:50 PM 46.4°F8.0°C 42.7°F5.9°C 87% 2.3 mph WSW3.7 kmh WSW 2.3 mph3.7 kmh 30.04 in1017.3 mb - 0.00 in0.0 mm 0.00 in0.0 mm
09:55 PM 46.4°F8.0°C 43.0°F6.1°C 88% 2.3 mph WSW3.7 kmh WSW 3.5 mph5.6 kmh 30.04 in1017.3 mb - 0.00 in0.0 mm 0.00 in0.0 mm
10:00 PM 46.3°F7.9°C 42.9°F6.1°C 88% 2.3 mph WSW3.7 kmh WSW 2.3 mph3.7 kmh 30.04 in1017.3 mb - 0.00 in0.0 mm 0.00 in0.0 mm
10:10 PM 45.9°F7.7°C 42.8°F6.0°C 89% 2.3 mph WSW3.7 kmh WSW 3.5 mph5.6 kmh 30.04 in1017.3 mb - 0.00 in0.0 mm 0.00 in0.0 mm
10:15 PM 46.1°F7.8°C 43.0°F6.1°C 89% 2.3 mph WSW3.7 kmh WSW 3.5 mph5.6 kmh 30.04 in1017.3 mb - 0.00 in0.0 mm 0.00 in0.0 mm
10:20 PM 46.3°F7.9°C 43.3°F6.3°C 89% 2.3 mph WSW3.7 kmh WSW 3.5 mph5.6 kmh 30.04 in1017.3 mb - 0.00 in0.0 mm 0.00 in0.0 mm
10:25 PM 47.0°F8.3°C 44.2°F6.8°C 90% 2.3 mph WSW3.7 kmh WSW 4.6 mph7.4 kmh 30.04 in1017.3 mb - 0.00 in0.0 mm 0.00 in0.0 mm
10:30 PM 47.2°F8.4°C 44.1°F6.7°C 89% 3.5 mph WSW5.6 kmh WSW 3.5 mph5.6 kmh 30.04 in1017.3 mb - 0.00 in0.0 mm 0.00 in0.0 mm
10:35 PM 47.0°F8.3°C 43.6°F6.4°C 88% 2.3 mph WSW3.7 kmh WSW 3.5 mph5.6 kmh 30.04 in1017.3 mb - 0.00 in0.0 mm 0.00 in0.0 mm
10:40 PM 46.6°F8.1°C 43.3°F6.3°C 88% 2.3 mph WSW3.7 kmh WSW 3.5 mph5.6 kmh 30.04 in1017.3 mb - 0.00 in0.0 mm 0.00 in0.0 mm
10:45 PM 46.6°F8.1°C 43.5°F6.4°C 89% 3.5 mph WSW5.6 kmh WSW 4.6 mph7.4 kmh 30.04 in1017.3 mb - 0.00 in0.0 mm 0.00 in0.0 mm
10:50 PM 46.6°F8.1°C 43.5°F6.4°C 89% 3.5 mph W5.6 kmh W 3.5 mph5.6 kmh 30.04 in1017.3 mb - 0.00 in0.0 mm 0.00 in0.0 mm
10:55 PM 46.5°F8.1°C 43.2°F6.2°C 88% 2.3 mph WSW3.7 kmh WSW 3.5 mph5.6 kmh 30.04 in1017.3 mb - 0.00 in0.0 mm 0.00 in0.0 mm
11:00 PM 45.9°F7.7°C 42.6°F5.9°C 88% 3.5 mph WSW5.6 kmh WSW 4.6 mph7.4 kmh 30.04 in1017.3 mb - 0.00 in0.0 mm 0.00 in0.0 mm
11:10 PM 46.2°F7.9°C 43.5°F6.4°C 90% 2.3 mph WSW3.7 kmh WSW 3.5 mph5.6 kmh 30.04 in1017.3 mb - 0.00 in0.0 mm 0.00 in0.0 mm
11:15 PM 46.7°F8.2°C 43.9°F6.6°C 90% 2.3 mph WSW3.7 kmh WSW 3.5 mph5.6 kmh 30.04 in1017.3 mb - 0.00 in0.0 mm 0.00 in0.0 mm
11:20 PM 46.7°F8.2°C 43.7°F6.5°C 89% 2.3 mph WSW3.7 kmh WSW 3.5 mph5.6 kmh 30.04 in1017.3 mb - 0.00 in0.0 mm 0.00 in0.0 mm
11:25 PM 46.6°F8.1°C 43.6°F6.4°C 89% 1.2 mph WSW1.9 kmh WSW 2.3 mph3.7 kmh 30.04 in1017.3 mb - 0.00 in0.0 mm 0.00 in0.0 mm
11:30 PM 46.7°F8.2°C 43.6°F6.4°C 89% 1.2 mph WSW1.9 kmh WSW 3.5 mph5.6 kmh 30.04 in1017.3 mb - 0.00 in0.0 mm 0.00 in0.0 mm
11:35 PM 46.7°F8.2°C 43.6°F6.4°C 89% 1.2 mph WSW1.9 kmh WSW 2.3 mph3.7 kmh 30.04 in1017.3 mb - 0.00 in0.0 mm 0.00 in0.0 mm
11:40 PM 46.6°F8.1°C 43.9°F6.6°C 90% Calm Calm 1.2 mph1.9 kmh 30.04 in1017.3 mb - 0.00 in0.0 mm 0.00 in0.0 mm
11:45 PM 46.8°F8.2°C 44.0°F6.7°C 90% Calm Calm 1.2 mph1.9 kmh 30.04 in1017.3 mb - 0.00 in0.0 mm 0.00 in0.0 mm
11:50 PM 46.8°F8.2°C 44.0°F6.7°C 90% 1.2 mph WSW1.9 kmh WSW 1.2 mph1.9 kmh 30.04 in1017.3 mb - 0.00 in0.0 mm 0.00 in0.0 mm
11:55 PM 46.6°F8.1°C 43.5°F6.4°C 89% 1.2 mph WSW1.9 kmh WSW 2.3 mph3.7 kmh 30.04 in1017.3 mb - 0.00 in0.0 mm 0.00 in0.0 mm